sensor_id;sensor_type;location;lat;lon;timestamp;pressure;altitude;pressure_sealevel;temperature;humidity
25130;BME280;13308;50.860;13.664;2023-03-22T06:24:06;96363.25;;;9.81;100.00
25130;BME280;13308;50.860;13.664;2023-03-22T06:26:32;96370.31;;;10.02;100.00
25130;BME280;13308;50.860;13.664;2023-03-22T06:28:58;96373.25;;;10.14;100.00
25130;BME280;13308;50.860;13.664;2023-03-22T06:31:24;96373.38;;;10.27;100.00
25130;BME280;13308;50.860;13.664;2023-03-22T06:33:56;96374.19;;;10.43;100.00
25130;BME280;13308;50.860;13.664;2023-03-22T06:36:26;96383.25;;;10.60;100.00
25130;BME280;13308;50.860;13.664;2023-03-22T06:39:02;96378.34;;;10.67;100.00
25130;BME280;13308;50.860;13.664;2023-03-22T06:41:29;96377.47;;;10.70;100.00
25130;BME280;13308;50.860;13.664;2023-03-22T06:43:55;96387.16;;;10.78;100.00
25130;BME280;13308;50.860;13.664;2023-03-22T06:46:39;96383.59;;;10.78;100.00
25130;BME280;13308;50.860;13.664;2023-03-22T06:49:13;96386.81;;;10.92;98.55
25130;BME280;13308;50.860;13.664;2023-03-22T06:51:39;96379.13;;;10.84;98.46
25130;BME280;13308;50.860;13.664;2023-03-22T06:54:04;96382.69;;;10.84;98.78
25130;BME280;13308;50.860;13.664;2023-03-22T06:56:30;96380.94;;;10.90;97.85
25130;BME280;13308;50.860;13.664;2023-03-22T06:58:55;96384.47;;;10.91;97.56
25130;BME280;13308;50.860;13.664;2023-03-22T07:01:23;96380.78;;;10.97;96.79
25130;BME280;13308;50.860;13.664;2023-03-22T07:03:49;96379.56;;;10.98;97.63
25130;BME280;13308;50.860;13.664;2023-03-22T07:06:17;96380.25;;;11.02;97.05
25130;BME280;13308;50.860;13.664;2023-03-22T07:08:46;96381.13;;;11.15;97.37
25130;BME280;13308;50.860;13.664;2023-03-22T07:11:15;96382.94;;;11.22;96.75
25130;BME280;13308;50.860;13.664;2023-03-22T07:13:43;96385.75;;;11.34;95.44
25130;BME280;13308;50.860;13.664;2023-03-22T07:16:13;96391.44;;;11.43;94.16
25130;BME280;13308;50.860;13.664;2023-03-22T07:18:43;96390.03;;;11.51;93.09
25130;BME280;13308;50.860;13.664;2023-03-22T07:21:09;96392.00;;;11.67;91.64
25130;BME280;13308;50.860;13.664;2023-03-22T07:23:37;96392.72;;;11.83;90.82
25130;BME280;13308;50.860;13.664;2023-03-22T07:26:07;96392.81;;;11.67;90.90
25130;BME280;13308;50.860;13.664;2023-03-22T07:28:35;96391.38;;;11.75;88.24
25130;BME280;13308;50.860;13.664;2023-03-22T07:31:05;96380.22;;;11.66;88.56
25130;BME280;13308;50.860;13.664;2023-03-22T07:33:41;96381.25;;;11.85;90.79
25130;BME280;13308;50.860;13.664;2023-03-22T07:36:08;96380.09;;;12.11;89.63
25130;BME280;13308;50.860;13.664;2023-03-22T07:38:34;96374.72;;;12.20;87.94
25130;BME280;13308;50.860;13.664;2023-03-22T07:41:01;96378.91;;;12.12;85.04
25130;BME280;13308;50.860;13.664;2023-03-22T07:43:43;96383.22;;;12.25;83.40
25130;BME280;13308;50.860;13.664;2023-03-22T07:46:14;96383.91;;;12.29;83.46
25130;BME280;13308;50.860;13.664;2023-03-22T07:49:04;96378.97;;;12.62;82.43
25130;BME280;13308;50.860;13.664;2023-03-22T07:51:58;96381.59;;;13.40;79.56
25130;BME280;13308;50.860;13.664;2023-03-22T07:54:24;96376.56;;;14.03;71.89
25130;BME280;13308;50.860;13.664;2023-03-22T07:56:49;96393.53;;;14.48;70.53
25130;BME280;13308;50.860;13.664;2023-03-22T07:59:15;96396.66;;;14.29;69.60
25130;BME280;13308;50.860;13.664;2023-03-22T08:01:42;96390.56;;;14.64;69.10
25130;BME280;13308;50.860;13.664;2023-03-22T08:04:30;96395.09;;;14.80;68.32
25130;BME280;13308;50.860;13.664;2023-03-22T08:07:15;96393.81;;;15.11;66.63
25130;BME280;13308;50.860;13.664;2023-03-22T08:09:43;96391.66;;;15.06;65.13
25130;BME280;13308;50.860;13.664;2023-03-22T08:12:09;96395.03;;;15.01;64.75
25130;BME280;13308;50.860;13.664;2023-03-22T08:14:36;96402.22;;;14.90;65.20
25130;BME280;13308;50.860;13.664;2023-03-22T08:17:04;96402.72;;;14.97;65.98
25130;BME280;13308;50.860;13.664;2023-03-22T08:19:29;96401.75;;;14.91;65.42
25130;BME280;13308;50.860;13.664;2023-03-22T08:21:57;96396.88;;;15.04;67.32
25130;BME280;13308;50.860;13.664;2023-03-22T08:24:42;96398.16;;;15.21;64.48
25130;BME280;13308;50.860;13.664;2023-03-22T08:27:13;96400.75;;;15.55;63.90
25130;BME280;13308;50.860;13.664;2023-03-22T08:29:44;96396.59;;;15.60;63.66
25130;BME280;13308;50.860;13.664;2023-03-22T08:32:11;96388.63;;;15.31;63.94
25130;BME280;13308;50.860;13.664;2023-03-22T08:34:41;96394.25;;;15.01;64.56
25130;BME280;13308;50.860;13.664;2023-03-22T08:37:08;96396.41;;;15.45;62.22
25130;BME280;13308;50.860;13.664;2023-03-22T08:39:35;96397.53;;;15.17;63.46
25130;BME280;13308;50.860;13.664;2023-03-22T08:42:14;96397.88;;;15.28;62.21
25130;BME280;13308;50.860;13.664;2023-03-22T08:44:40;96405.38;;;15.49;61.46
25130;BME280;13308;50.860;13.664;2023-03-22T08:47:06;96403.34;;;15.50;61.48
25130;BME280;13308;50.860;13.664;2023-03-22T08:49:32;96405.38;;;15.58;61.52
25130;BME280;13308;50.860;13.664;2023-03-22T08:52:03;96397.97;;;15.64;61.79
25130;BME280;13308;50.860;13.664;2023-03-22T08:54:53;96393.97;;;15.56;60.17
25130;BME280;13308;50.860;13.664;2023-03-22T08:57:37;96390.28;;;15.86;60.50
25130;BME280;13308;50.860;13.664;2023-03-22T09:00:25;96391.19;;;15.74;60.39
25130;BME280;13308;50.860;13.664;2023-03-22T09:03:03;96394.59;;;16.05;60.88
25130;BME280;13308;50.860;13.664;2023-03-22T09:05:29;96396.13;;;16.24;58.41
25130;BME280;13308;50.860;13.664;2023-03-22T09:07:54;96390.69;;;16.66;58.50
25130;BME280;13308;50.860;13.664;2023-03-22T09:10:27;96390.75;;;16.89;55.75
25130;BME280;13308;50.860;13.664;2023-03-22T09:12:53;96395.25;;;17.19;57.48
25130;BME280;13308;50.860;13.664;2023-03-22T09:15:20;96399.84;;;16.99;55.61
25130;BME280;13308;50.860;13.664;2023-03-22T09:17:58;96391.28;;;17.11;55.85
25130;BME280;13308;50.860;13.664;2023-03-22T09:20:24;96398.63;;;16.91;56.81
25130;BME280;13308;50.860;13.664;2023-03-22T09:22:50;96385.00;;;16.24;57.29
25130;BME280;13308;50.860;13.664;2023-03-22T09:25:18;96386.56;;;16.25;58.80
25130;BME280;13308;50.860;13.664;2023-03-22T09:27:46;96383.50;;;15.96;58.42
25130;BME280;13308;50.860;13.664;2023-03-22T09:30:12;96389.19;;;15.75;61.06
25130;BME280;13308;50.860;13.664;2023-03-22T09:32:37;96376.22;;;15.81;60.14
25130;BME280;13308;50.860;13.664;2023-03-22T09:35:04;96377.31;;;16.01;61.90
25130;BME280;13308;50.860;13.664;2023-03-22T09:37:37;96367.25;;;15.77;60.87
25130;BME280;13308;50.860;13.664;2023-03-22T09:40:05;96371.88;;;16.16;61.63
25130;BME280;13308;50.860;13.664;2023-03-22T09:42:37;96370.19;;;15.73;61.17
25130;BME280;13308;50.860;13.664;2023-03-22T09:45:15;96364.00;;;15.60;60.53
25130;BME280;13308;50.860;13.664;2023-03-22T09:47:45;96369.09;;;15.80;61.47
25130;BME280;13308;50.860;13.664;2023-03-22T09:50:14;96352.41;;;15.53;62.77
25130;BME280;13308;50.860;13.664;2023-03-22T09:52:43;96354.13;;;16.04;58.98
25130;BME280;13308;50.860;13.664;2023-03-22T09:55:18;96353.97;;;15.99;59.70
25130;BME280;13308;50.860;13.664;2023-03-22T09:58:00;96354.13;;;16.13;60.35
25130;BME280;13308;50.860;13.664;2023-03-22T10:00:40;96349.63;;;15.80;60.72
25130;BME280;13308;50.860;13.664;2023-03-22T10:05:42;96355.91;;;16.34;59.37
25130;BME280;13308;50.860;13.664;2023-03-22T10:10:56;96346.31;;;16.35;59.66
25130;BME280;13308;50.860;13.664;2023-03-22T10:13:39;96342.63;;;16.29;58.52
25130;BME280;13308;50.860;13.664;2023-03-22T10:16:11;96343.44;;;16.80;58.23
25130;BME280;13308;50.860;13.664;2023-03-22T10:18:40;96354.03;;;17.00;57.03
25130;BME280;13308;50.860;13.664;2023-03-22T10:21:11;96340.34;;;16.28;58.57
25130;BME280;13308;50.860;13.664;2023-03-22T10:23:44;96341.53;;;16.36;59.73
25130;BME280;13308;50.860;13.664;2023-03-22T10:26:20;96335.13;;;15.76;59.75
25130;BME280;13308;50.860;13.664;2023-03-22T10:28:51;96333.13;;;15.67;60.93
25130;BME280;13308;50.860;13.664;2023-03-22T10:31:19;96327.78;;;16.23;60.23
25130;BME280;13308;50.860;13.664;2023-03-22T10:34:01;96324.75;;;16.03;60.37
25130;BME280;13308;50.860;13.664;2023-03-22T10:36:30;96328.00;;;16.11;60.45
25130;BME280;13308;50.860;13.664;2023-03-22T10:39:18;96311.38;;;16.34;58.80
25130;BME280;13308;50.860;13.664;2023-03-22T10:41:51;96307.69;;;16.79;58.16
25130;BME280;13308;50.860;13.664;2023-03-22T10:44:18;96306.97;;;17.25;57.20
25130;BME280;13308;50.860;13.664;2023-03-22T10:46:46;96309.03;;;17.16;57.40
25130;BME280;13308;50.860;13.664;2023-03-22T10:49:21;96301.28;;;17.43;56.25
25130;BME280;13308;50.860;13.664;2023-03-22T10:51:49;96308.03;;;17.75;56.09
25130;BME280;13308;50.860;13.664;2023-03-22T10:54:17;96294.03;;;17.98;54.52
25130;BME280;13308;50.860;13.664;2023-03-22T10:56:45;96307.13;;;18.07;53.49
25130;BME280;13308;50.860;13.664;2023-03-22T11:02:17;96305.13;;;18.36;52.95
25130;BME280;13308;50.860;13.664;2023-03-22T11:04:52;96304.00;;;17.90;55.84
25130;BME280;13308;50.860;13.664;2023-03-22T11:07:42;96293.78;;;18.54;52.91
25130;BME280;13308;50.860;13.664;2023-03-22T11:12:34;96307.91;;;19.14;50.77
25130;BME280;13308;50.860;13.664;2023-03-22T11:15:01;96294.69;;;19.49;50.98
25130;BME280;13308;50.860;13.664;2023-03-22T11:17:26;96286.91;;;19.58;51.97
25130;BME280;13308;50.860;13.664;2023-03-22T11:19:55;96279.69;;;19.72;51.88
25130;BME280;13308;50.860;13.664;2023-03-22T11:24:47;96270.53;;;18.97;51.83
25130;BME280;13308;50.860;13.664;2023-03-22T11:27:23;96272.91;;;20.04;49.33
25130;BME280;13308;50.860;13.664;2023-03-22T11:29:51;96259.38;;;19.97;50.15
25130;BME280;13308;50.860;13.664;2023-03-22T11:32:33;96262.44;;;19.99;49.61
25130;BME280;13308;50.860;13.664;2023-03-22T11:35:23;96257.78;;;19.70;49.71
25130;BME280;13308;50.860;13.664;2023-03-22T11:37:53;96262.75;;;19.81;48.07
25130;BME280;13308;50.860;13.664;2023-03-22T11:40:24;96267.50;;;19.95;48.94
25130;BME280;13308;50.860;13.664;2023-03-22T11:45:35;96234.94;;;19.72;49.17
25130;BME280;13308;50.860;13.664;2023-03-22T11:48:06;96232.69;;;19.56;48.20
25130;BME280;13308;50.860;13.664;2023-03-22T11:50:35;96233.50;;;19.82;48.40
25130;BME280;13308;50.860;13.664;2023-03-22T11:53:02;96245.41;;;19.77;47.92
25130;BME280;13308;50.860;13.664;2023-03-22T11:55:29;96235.19;;;19.74;47.56
25130;BME280;13308;50.860;13.664;2023-03-22T11:57:58;96225.03;;;19.31;49.11
25130;BME280;13308;50.860;13.664;2023-03-22T12:00:25;96218.69;;;19.16;47.73
25130;BME280;13308;50.860;13.664;2023-03-22T12:03:14;96221.06;;;19.38;49.23
25130;BME280;13308;50.860;13.664;2023-03-22T12:05:42;96213.72;;;19.40;49.61
25130;BME280;13308;50.860;13.664;2023-03-22T12:08:38;96204.53;;;19.19;50.34
25130;BME280;13308;50.860;13.664;2023-03-22T12:11:06;96217.06;;;19.44;48.80
25130;BME280;13308;50.860;13.664;2023-03-22T12:13:50;96207.25;;;19.14;47.96
25130;BME280;13308;50.860;13.664;2023-03-22T12:16:23;96198.13;;;19.33;48.44
25130;BME280;13308;50.860;13.664;2023-03-22T12:19:13;96197.59;;;19.55;48.46
25130;BME280;13308;50.860;13.664;2023-03-22T12:21:42;96185.13;;;19.56;49.52
25130;BME280;13308;50.860;13.664;2023-03-22T12:24:21;96175.81;;;19.90;49.06
25130;BME280;13308;50.860;13.664;2023-03-22T12:26:48;96189.47;;;20.33;47.55
25130;BME280;13308;50.860;13.664;2023-03-22T12:29:17;96197.91;;;20.39;48.02
25130;BME280;13308;50.860;13.664;2023-03-22T12:31:53;96196.13;;;20.41;47.52
25130;BME280;13308;50.860;13.664;2023-03-22T12:34:27;96192.38;;;20.50;47.52
25130;BME280;13308;50.860;13.664;2023-03-22T12:36:56;96188.44;;;20.36;46.89
25130;BME280;13308;50.860;13.664;2023-03-22T12:39:36;96198.16;;;20.77;46.94
25130;BME280;13308;50.860;13.664;2023-03-22T12:42:35;96194.19;;;20.53;45.65
25130;BME280;13308;50.860;13.664;2023-03-22T12:45:13;96188.00;;;20.80;45.73
25130;BME280;13308;50.860;13.664;2023-03-22T12:47:46;96181.00;;;21.01;45.27
25130;BME280;13308;50.860;13.664;2023-03-22T12:50:16;96185.91;;;21.11;44.10
25130;BME280;13308;50.860;13.664;2023-03-22T12:52:51;96183.53;;;21.63;43.69
25130;BME280;13308;50.860;13.664;2023-03-22T12:55:25;96168.78;;;20.62;43.98
25130;BME280;13308;50.860;13.664;2023-03-22T12:57:52;96163.34;;;20.16;43.75
25130;BME280;13308;50.860;13.664;2023-03-22T13:00:20;96176.38;;;20.92;45.40
25130;BME280;13308;50.860;13.664;2023-03-22T13:02:58;96164.63;;;20.52;44.33
25130;BME280;13308;50.860;13.664;2023-03-22T13:05:28;96175.16;;;21.04;44.02
25130;BME280;13308;50.860;13.664;2023-03-22T13:07:55;96165.88;;;20.87;45.18
25130;BME280;13308;50.860;13.664;2023-03-22T13:21:17;96168.19;;;21.53;43.48
25130;BME280;13308;50.860;13.664;2023-03-22T13:26:46;96158.84;;;21.08;42.01
25130;BME280;13308;50.860;13.664;2023-03-22T13:29:19;96161.38;;;20.22;43.69
25130;BME280;13308;50.860;13.664;2023-03-22T13:34:30;96154.69;;;19.89;44.64
25130;BME280;13308;50.860;13.664;2023-03-22T13:36:58;96159.78;;;20.47;44.75
25130;BME280;13308;50.860;13.664;2023-03-22T13:39:31;96146.94;;;20.35;44.66
25130;BME280;13308;50.860;13.664;2023-03-22T13:42:21;96144.31;;;19.95;45.04
25130;BME280;13308;50.860;13.664;2023-03-22T13:44:55;96142.25;;;19.95;45.11
25130;BME280;13308;50.860;13.664;2023-03-22T13:47:50;96134.41;;;20.67;45.13
25130;BME280;13308;50.860;13.664;2023-03-22T13:50:25;96124.19;;;20.64;44.71
25130;BME280;13308;50.860;13.664;2023-03-22T13:52:57;96125.38;;;20.46;45.24
25130;BME280;13308;50.860;13.664;2023-03-22T13:58:51;96127.66;;;19.55;46.33
25130;BME280;13308;50.860;13.664;2023-03-22T14:01:35;96117.94;;;19.50;46.76
25130;BME280;13308;50.860;13.664;2023-03-22T14:04:10;96116.56;;;19.66;46.42
25130;BME280;13308;50.860;13.664;2023-03-22T14:06:47;96117.44;;;19.06;45.61
25130;BME280;13308;50.860;13.664;2023-03-22T14:09:33;96111.50;;;18.79;47.18
25130;BME280;13308;50.860;13.664;2023-03-22T14:12:18;96110.75;;;18.24;47.70
25130;BME280;13308;50.860;13.664;2023-03-22T14:14:49;96104.09;;;18.22;48.02
25130;BME280;13308;50.860;13.664;2023-03-22T14:17:38;96112.25;;;18.05;48.48
25130;BME280;13308;50.860;13.664;2023-03-22T14:20:11;96105.44;;;17.77;48.68
25130;BME280;13308;50.860;13.664;2023-03-22T14:22:43;96103.63;;;17.74;49.22
25130;BME280;13308;50.860;13.664;2023-03-22T14:25:17;96107.66;;;17.73;49.58
25130;BME280;13308;50.860;13.664;2023-03-22T14:27:43;96103.41;;;17.92;48.03
25130;BME280;13308;50.860;13.664;2023-03-22T14:32:57;96099.38;;;17.93;46.62
25130;BME280;13308;50.860;13.664;2023-03-22T14:35:36;96093.59;;;17.82;47.65
25130;BME280;13308;50.860;13.664;2023-03-22T14:38:05;96099.19;;;17.82;47.95
25130;BME280;13308;50.860;13.664;2023-03-22T14:40:36;96093.78;;;17.93;47.51
25130;BME280;13308;50.860;13.664;2023-03-22T14:43:22;96091.09;;;17.84;47.64
25130;BME280;13308;50.860;13.664;2023-03-22T14:45:59;96087.81;;;17.86;47.97
25130;BME280;13308;50.860;13.664;2023-03-22T14:48:30;96095.91;;;17.98;47.17
25130;BME280;13308;50.860;13.664;2023-03-22T14:50:56;96093.72;;;18.22;47.44
25130;BME280;13308;50.860;13.664;2023-03-22T14:53:34;96097.88;;;19.27;46.01
25130;BME280;13308;50.860;13.664;2023-03-22T14:56:11;96103.31;;;20.65;44.50
25130;BME280;13308;50.860;13.664;2023-03-22T14:58:39;96096.59;;;20.93;44.01
25130;BME280;13308;50.860;13.664;2023-03-22T15:01:12;96097.13;;;20.50;43.07
25130;BME280;13308;50.860;13.664;2023-03-22T15:03:38;96098.28;;;20.01;43.61
25130;BME280;13308;50.860;13.664;2023-03-22T15:06:07;96105.63;;;19.68;45.03
25130;BME280;13308;50.860;13.664;2023-03-22T15:08:33;96098.75;;;19.38;44.71
25130;BME280;13308;50.860;13.664;2023-03-22T15:11:01;96088.13;;;18.77;46.26
25130;BME280;13308;50.860;13.664;2023-03-22T15:13:30;96088.75;;;18.66;46.69
25130;BME280;13308;50.860;13.664;2023-03-22T15:15:56;96084.59;;;19.47;45.42
25130;BME280;13308;50.860;13.664;2023-03-22T15:18:24;96096.97;;;20.28;43.11
25130;BME280;13308;50.860;13.664;2023-03-22T15:20:53;96096.69;;;20.68;42.66
25130;BME280;13308;50.860;13.664;2023-03-22T15:23:32;96098.91;;;20.95;42.72
25130;BME280;13308;50.860;13.664;2023-03-22T15:25:58;96100.84;;;21.47;41.38
25130;BME280;13308;50.860;13.664;2023-03-22T15:28:31;96103.84;;;21.33;40.11
25130;BME280;13308;50.860;13.664;2023-03-22T15:30:59;96090.09;;;20.71;40.89
25130;BME280;13308;50.860;13.664;2023-03-22T15:35:59;96076.06;;;19.10;44.39
25130;BME280;13308;50.860;13.664;2023-03-22T15:38:53;96081.50;;;18.54;44.11
25130;BME280;13308;50.860;13.664;2023-03-22T15:41:25;96078.91;;;18.16;44.27
25130;BME280;13308;50.860;13.664;2023-03-22T15:44:13;96085.97;;;18.46;44.27
25130;BME280;13308;50.860;13.664;2023-03-22T15:46:56;96095.03;;;18.81;43.63
25130;BME280;13308;50.860;13.664;2023-03-22T15:49:44;96081.88;;;19.07;43.48
25130;BME280;13308;50.860;13.664;2023-03-22T15:52:17;96077.16;;;19.18;42.66
25130;BME280;13308;50.860;13.664;2023-03-22T15:57:24;96097.28;;;18.57;42.47
25130;BME280;13308;50.860;13.664;2023-03-22T16:00:33;96088.38;;;18.04;44.14
25130;BME280;13308;50.860;13.664;2023-03-22T16:02:58;96084.59;;;17.73;45.99
25130;BME280;13308;50.860;13.664;2023-03-22T16:05:26;96075.75;;;17.74;46.14
25130;BME280;13308;50.860;13.664;2023-03-22T16:07:52;96089.38;;;17.72;45.16
25130;BME280;13308;50.860;13.664;2023-03-22T16:10:20;96082.66;;;17.64;44.49
25130;BME280;13308;50.860;13.664;2023-03-22T16:12:46;96092.44;;;17.16;46.47
25130;BME280;13308;50.860;13.664;2023-03-22T16:15:15;96087.00;;;16.84;47.69
25130;BME280;13308;50.860;13.664;2023-03-22T16:17:40;96081.91;;;16.82;47.85
25130;BME280;13308;50.860;13.664;2023-03-22T16:20:06;96087.19;;;16.80;47.46
25130;BME280;13308;50.860;13.664;2023-03-22T16:22:32;96084.09;;;16.64;47.64
25130;BME280;13308;50.860;13.664;2023-03-22T16:24:57;96090.47;;;16.55;48.17
25130;BME280;13308;50.860;13.664;2023-03-22T16:27:24;96091.31;;;16.47;48.87
25130;BME280;13308;50.860;13.664;2023-03-22T16:29:49;96088.72;;;16.43;48.39
25130;BME280;13308;50.860;13.664;2023-03-22T16:32:26;96085.31;;;16.39;47.84
25130;BME280;13308;50.860;13.664;2023-03-22T16:34:52;96086.19;;;16.22;48.91
25130;BME280;13308;50.860;13.664;2023-03-22T16:37:19;96080.63;;;16.22;49.28
25130;BME280;13308;50.860;13.664;2023-03-22T16:39:46;96089.72;;;15.99;50.11
25130;BME280;13308;50.860;13.664;2023-03-22T16:42:22;96083.88;;;15.88;50.63
25130;BME280;13308;50.860;13.664;2023-03-22T16:44:49;96082.47;;;15.60;52.32
25130;BME280;13308;50.860;13.664;2023-03-22T16:47:24;96082.22;;;15.40;53.33
25130;BME280;13308;50.860;13.664;2023-03-22T16:49:53;96079.63;;;15.18;53.64
25130;BME280;13308;50.860;13.664;2023-03-22T16:52:20;96077.78;;;15.06;53.59
25130;BME280;13308;50.860;13.664;2023-03-22T16:54:48;96074.72;;;14.86;55.47
25130;BME280;13308;50.860;13.664;2023-03-22T16:57:16;96071.34;;;14.46;57.25
25130;BME280;13308;50.860;13.664;2023-03-22T16:59:41;96083.13;;;14.11;58.41
25130;BME280;13308;50.860;13.664;2023-03-22T17:02:23;96080.81;;;14.09;57.95
25130;BME280;13308;50.860;13.664;2023-03-22T17:04:49;96087.53;;;13.90;57.83
25130;BME280;13308;50.860;13.664;2023-03-22T17:07:17;96083.19;;;13.80;58.65
25130;BME280;13308;50.860;13.664;2023-03-22T17:09:44;96084.63;;;13.54;59.62
25130;BME280;13308;50.860;13.664;2023-03-22T17:12:19;96093.66;;;13.46;59.43
25130;BME280;13308;50.860;13.664;2023-03-22T17:14:45;96093.16;;;13.38;59.61
25130;BME280;13308;50.860;13.664;2023-03-22T17:17:12;96093.72;;;13.24;60.52
25130;BME280;13308;50.860;13.664;2023-03-22T17:19:37;96094.88;;;13.14;60.85
25130;BME280;13308;50.860;13.664;2023-03-22T17:22:03;96093.59;;;13.06;60.49
25130;BME280;13308;50.860;13.664;2023-03-22T17:24:30;96091.66;;;12.94;61.54
25130;BME280;13308;50.860;13.664;2023-03-22T17:26:56;96095.53;;;12.75;62.80
25130;BME280;13308;50.860;13.664;2023-03-22T17:29:21;96088.03;;;12.63;64.21
25130;BME280;13308;50.860;13.664;2023-03-22T17:31:46;96082.38;;;12.45;65.78
25130;BME280;13308;50.860;13.664;2023-03-22T17:34:12;96088.97;;;12.26;67.59
25130;BME280;13308;50.860;13.664;2023-03-22T17:36:38;96091.13;;;11.97;69.39
25130;BME280;13308;50.860;13.664;2023-03-22T17:39:03;96095.66;;;11.79;70.26
25130;BME280;13308;50.860;13.664;2023-03-22T17:41:32;96097.00;;;11.62;71.92
25130;BME280;13308;50.860;13.664;2023-03-22T17:43:57;96101.19;;;11.54;72.21
25130;BME280;13308;50.860;13.664;2023-03-22T17:46:22;96104.16;;;11.34;73.04
25130;BME280;13308;50.860;13.664;2023-03-22T17:48:49;96118.69;;;11.22;73.85
25130;BME280;13308;50.860;13.664;2023-03-22T17:51:14;96125.22;;;11.16;74.09
25130;BME280;13308;50.860;13.664;2023-03-22T17:53:39;96139.34;;;11.18;74.15
25130;BME280;13308;50.860;13.664;2023-03-22T17:56:05;96129.97;;;11.15;73.84
25130;BME280;13308;50.860;13.664;2023-03-22T17:58:30;96133.25;;;11.10;75.54
25130;BME280;13308;50.860;13.664;2023-03-22T18:00:56;96131.91;;;11.02;75.93
25130;BME280;13308;50.860;13.664;2023-03-22T18:03:21;96126.59;;;10.95;77.64
25130;BME280;13308;50.860;13.664;2023-03-22T18:05:47;96123.28;;;11.00;77.96
25130;BME280;13308;50.860;13.664;2023-03-22T18:08:12;96129.50;;;11.04;77.75
25130;BME280;13308;50.860;13.664;2023-03-22T18:10:41;96131.72;;;11.09;77.14
25130;BME280;13308;50.860;13.664;2023-03-22T18:13:06;96137.34;;;11.06;77.45
25130;BME280;13308;50.860;13.664;2023-03-22T18:15:32;96140.84;;;10.94;79.02
25130;BME280;13308;50.860;13.664;2023-03-22T18:17:57;96136.16;;;10.91;79.33
25130;BME280;13308;50.860;13.664;2023-03-22T18:20:22;96145.72;;;11.02;78.76
25130;BME280;13308;50.860;13.664;2023-03-22T18:22:49;96142.22;;;11.14;78.81
25130;BME280;13308;50.860;13.664;2023-03-22T18:25:15;96146.94;;;11.01;79.48
25130;BME280;13308;50.860;13.664;2023-03-22T18:27:42;96146.25;;;10.97;79.39
25130;BME280;13308;50.860;13.664;2023-03-22T18:30:08;96147.03;;;10.98;79.78
25130;BME280;13308;50.860;13.664;2023-03-22T18:32:34;96147.38;;;11.00;79.13
25130;BME280;13308;50.860;13.664;2023-03-22T18:35:00;96160.94;;;11.07;78.99
25130;BME280;13308;50.860;13.664;2023-03-22T18:37:25;96161.59;;;10.98;79.10
25130;BME280;13308;50.860;13.664;2023-03-22T18:39:51;96159.03;;;10.91;79.50
25130;BME280;13308;50.860;13.664;2023-03-22T18:42:17;96160.09;;;10.81;80.40
25130;BME280;13308;50.860;13.664;2023-03-22T18:44:42;96166.28;;;10.85;80.25
25130;BME280;13308;50.860;13.664;2023-03-22T18:47:08;96160.97;;;10.78;80.40
25130;BME280;13308;50.860;13.664;2023-03-22T18:49:35;96163.00;;;10.90;79.75
25130;BME280;13308;50.860;13.664;2023-03-22T18:52:03;96162.19;;;10.77;79.51
25130;BME280;13308;50.860;13.664;2023-03-22T18:54:30;96171.00;;;10.72;79.99
25130;BME280;13308;50.860;13.664;2023-03-22T18:56:55;96160.28;;;10.74;79.02
25130;BME280;13308;50.860;13.664;2023-03-22T18:59:21;96173.16;;;10.93;78.07
25130;BME280;13308;50.860;13.664;2023-03-22T19:01:46;96165.41;;;10.88;77.78
25130;BME280;13308;50.860;13.664;2023-03-22T19:04:12;96164.75;;;10.84;77.42
25130;BME280;13308;50.860;13.664;2023-03-22T19:06:39;96165.69;;;10.78;78.11
25130;BME280;13308;50.860;13.664;2023-03-22T19:09:10;96173.22;;;10.77;78.20
25130;BME280;13308;50.860;13.664;2023-03-22T19:11:35;96167.34;;;10.75;78.23
25130;BME280;13308;50.860;13.664;2023-03-22T19:14:00;96165.13;;;10.70;78.17
25130;BME280;13308;50.860;13.664;2023-03-22T19:16:25;96169.97;;;10.66;78.52
